createdAt,value
2019-02-07T00:00:57.106Z,-5.13
2019-02-07T00:01:57.106Z,-5.23
2019-02-07T00:02:57.079Z,-5.11
2019-02-07T00:03:57.080Z,-5.22
2019-02-07T00:04:57.054Z,-5.23
2019-02-07T00:05:57.046Z,-5.29
2019-02-07T00:06:57.037Z,-5.18
2019-02-07T00:07:57.047Z,-5.26
2019-02-07T00:08:57.022Z,-5.14
2019-02-07T00:09:57.007Z,-5.25
2019-02-07T00:10:56.987Z,-5.07
2019-02-07T00:11:56.983Z,-5.13
2019-02-07T00:12:56.987Z,-5.17
2019-02-07T00:13:56.962Z,-5.14
2019-02-07T00:14:56.943Z,-5.18
2019-02-07T00:15:56.938Z,-5.17
2019-02-07T00:16:56.933Z,-5.13
2019-02-07T00:17:56.914Z,-5.18
2019-02-07T00:18:56.904Z,-5.13
2019-02-07T00:19:56.890Z,-5.17
2019-02-07T00:20:56.914Z,-5.10
2019-02-07T00:21:56.911Z,-5.13
2019-02-07T00:22:56.864Z,-5.11
2019-02-07T00:23:56.869Z,-5.11
2019-02-07T00:24:56.836Z,-5.13
2019-02-07T00:25:56.832Z,-5.13
2019-02-07T00:26:56.813Z,-5.11
2019-02-07T00:27:56.801Z,-5.14
2019-02-07T00:28:56.792Z,-5.14
2019-02-07T00:29:56.798Z,-5.11
2019-02-07T00:30:56.769Z,-5.06
2019-02-07T00:31:56.777Z,-5.14
2019-02-07T00:32:56.754Z,-5.03
2019-02-07T00:33:56.744Z,-5.07
2019-02-07T00:34:56.753Z,-5.07
2019-02-07T00:35:56.724Z,-5.08
2019-02-07T00:36:56.701Z,-5.13
2019-02-07T00:37:56.724Z,-5.17
2019-02-07T00:38:56.687Z,-5.18
2019-02-07T00:39:56.670Z,-5.19
2019-02-07T00:40:56.672Z,-5.10
2019-02-07T00:41:56.680Z,-5.13
2019-02-07T00:42:56.641Z,-5.26
2019-02-07T00:43:56.629Z,-5.22
2019-02-07T00:44:56.635Z,-5.22
2019-02-07T00:45:56.640Z,-5.25
2019-02-07T00:46:56.616Z,-5.11
2019-02-07T00:47:56.591Z,-5.11
2019-02-07T00:48:56.583Z,-5.13
2019-02-07T00:49:56.571Z,-5.10
2019-02-07T00:50:56.551Z,-5.10
2019-02-07T00:51:56.546Z,-5.00
2019-02-07T00:52:56.554Z,-5.17
2019-02-07T00:53:56.520Z,-5.11
2019-02-07T00:54:56.507Z,-5.17
2019-02-07T00:55:56.527Z,-5.11
2019-02-07T00:56:56.515Z,-5.22
2019-02-07T00:57:56.510Z,-5.25
2019-02-07T00:58:56.462Z,-5.25
2019-02-07T00:59:56.459Z,-5.26
2019-02-07T01:00:56.439Z,-5.25
2019-02-07T01:01:56.454Z,-5.27
2019-02-07T01:02:56.424Z,-5.30
2019-02-07T01:03:56.437Z,-5.29
2019-02-07T01:04:56.397Z,-5.30
2019-02-07T01:05:56.410Z,-5.33
2019-02-07T01:06:56.373Z,-5.37
2019-02-07T01:07:56.398Z,-5.27
2019-02-07T01:08:56.360Z,-5.36
2019-02-07T01:09:56.343Z,-5.33
2019-02-07T01:10:56.334Z,-5.51
2019-02-07T01:11:56.319Z,-5.47
2019-02-07T01:12:56.308Z,-5.47
2019-02-07T01:13:56.331Z,-5.47
2019-02-07T01:15:02.189Z,-5.53
2019-02-07T01:15:57.279Z,-5.59
2019-02-07T01:16:56.283Z,-5.61
2019-02-07T01:17:56.256Z,-5.62
2019-02-07T01:18:56.270Z,-5.62
2019-02-07T01:19:56.256Z,-5.54
2019-02-07T01:20:56.228Z,-5.65
2019-02-07T01:21:56.212Z,-5.53
2019-02-07T01:22:56.218Z,-5.53
2019-02-07T01:23:56.208Z,-5.54
2019-02-07T01:24:56.193Z,-5.59
2019-02-07T01:25:56.172Z,-5.55
2019-02-07T01:26:56.183Z,-5.53
2019-02-07T01:27:56.166Z,-5.51
2019-02-07T01:28:56.160Z,-5.44
2019-02-07T01:29:56.140Z,-5.54
2019-02-07T01:30:56.123Z,-5.37
2019-02-07T01:31:56.127Z,-5.37
2019-02-07T01:32:56.135Z,-5.37
2019-02-07T01:33:56.087Z,-5.44
2019-02-07T01:34:56.098Z,-5.39
2019-02-07T01:35:56.069Z,-5.41
2019-02-07T01:36:56.056Z,-5.51
2019-02-07T01:37:56.040Z,-5.51
2019-02-07T01:38:56.041Z,-5.54
2019-02-07T01:39:56.065Z,-5.59
2019-02-07T01:40:56.009Z,-5.62
2019-02-07T01:41:56.036Z,-5.64
2019-02-07T01:42:56.057Z,-5.66
2019-02-07T01:43:55.977Z,-5.66
2019-02-07T01:44:55.960Z,-5.59
2019-02-07T01:45:55.967Z,-5.57
2019-02-07T01:46:55.966Z,-5.68
2019-02-07T01:47:55.943Z,-5.61
2019-02-07T01:48:55.920Z,-5.71
2019-02-07T01:49:55.910Z,-5.74
2019-02-07T01:50:55.912Z,-5.66
2019-02-07T01:51:55.893Z,-5.72
2019-02-07T01:52:55.877Z,-5.72
2019-02-07T01:53:55.869Z,-5.71
2019-02-07T01:54:55.869Z,-5.76
2019-02-07T01:55:55.844Z,-5.79
2019-02-07T01:56:55.836Z,-5.71
2019-02-07T01:57:55.819Z,-5.72
2019-02-07T01:58:55.828Z,-5.82
2019-02-07T01:59:55.813Z,-5.68
2019-02-07T02:00:55.838Z,-5.72
2019-02-07T02:01:55.810Z,-5.79
2019-02-07T02:02:55.772Z,-5.74
2019-02-07T02:03:55.798Z,-5.76
2019-02-07T02:04:55.751Z,-5.72
2019-02-07T02:05:55.734Z,-5.76
2019-02-07T02:06:55.721Z,-5.87
2019-02-07T02:07:55.735Z,-5.86
2019-02-07T02:08:55.710Z,-5.83
2019-02-07T02:09:55.691Z,-5.83
2019-02-07T02:10:55.690Z,-5.83
2019-02-07T02:11:55.668Z,-5.89
2019-02-07T02:12:55.694Z,-5.90
2019-02-07T02:13:55.651Z,-5.86
2019-02-07T02:14:55.637Z,-5.83
2019-02-07T02:15:55.624Z,-5.92
2019-02-07T02:16:55.610Z,-5.87
2019-02-07T02:17:55.600Z,-5.97
2019-02-07T02:18:55.610Z,-5.93
2019-02-07T02:19:55.596Z,-6.04
2019-02-07T02:20:55.581Z,-5.93
2019-02-07T02:21:55.558Z,-5.93
2019-02-07T02:22:55.550Z,-5.97
2019-02-07T02:23:55.567Z,-6.05
2019-02-07T02:24:55.525Z,-6.05
2019-02-07T02:25:55.533Z,-5.90
2019-02-07T02:26:55.518Z,-6.01
2019-02-07T02:27:55.497Z,-5.98
2019-02-07T02:28:55.513Z,-6.03
2019-02-07T02:29:55.478Z,-5.90
2019-02-07T02:30:55.460Z,-6.05
2019-02-07T02:31:55.450Z,-6.00
2019-02-07T02:32:55.450Z,-6.00
2019-02-07T02:33:55.485Z,-5.90
2019-02-07T02:34:55.449Z,-5.97
2019-02-07T02:35:55.411Z,-5.90
2019-02-07T02:36:55.408Z,-5.94
2019-02-07T02:37:55.387Z,-5.94
2019-02-07T02:38:55.373Z,-5.92
2019-02-07T02:39:55.389Z,-5.86
2019-02-07T02:40:55.418Z,-5.93
2019-02-07T02:41:55.344Z,-5.98
2019-02-07T02:42:55.341Z,-5.93
2019-02-07T02:43:56.139Z,-6.03
2019-02-07T02:44:55.330Z,-5.89
2019-02-07T02:45:55.322Z,-6.03
2019-02-07T02:46:55.293Z,-5.94
2019-02-07T02:47:55.290Z,-6.03
2019-02-07T02:48:55.281Z,-5.94
2019-02-07T02:49:55.259Z,-6.05
2019-02-07T02:50:55.292Z,-5.98
2019-02-07T02:51:55.241Z,-5.93
2019-02-07T02:52:55.249Z,-6.07
2019-02-07T02:53:55.234Z,-6.03
2019-02-07T02:54:55.220Z,-5.94
2019-02-07T02:55:55.209Z,-5.94
2019-02-07T02:56:55.181Z,-5.92
2019-02-07T02:57:55.197Z,-6.03
2019-02-07T02:58:55.180Z,-5.97
2019-02-07T02:59:55.153Z,-5.97
2019-02-07T03:00:55.190Z,-5.89
2019-02-07T03:01:55.193Z,-5.82
2019-02-07T03:02:55.135Z,-5.89
2019-02-07T03:03:55.133Z,-5.97
2019-02-07T03:04:55.192Z,-6.00
2019-02-07T03:05:55.090Z,-5.98
2019-02-07T03:06:55.096Z,-5.94
2019-02-07T03:07:55.058Z,-5.86
2019-02-07T03:08:55.061Z,-5.90
2019-02-07T03:09:55.064Z,-5.89
2019-02-07T03:10:55.027Z,-5.97
2019-02-07T03:11:55.039Z,-5.84
2019-02-07T03:12:55.035Z,-5.98
2019-02-07T03:13:55.012Z,-6.05
2019-02-07T03:14:54.983Z,-6.05
2019-02-07T03:15:54.994Z,-6.08
2019-02-07T03:16:54.984Z,-6.05
2019-02-07T03:17:54.992Z,-6.03
2019-02-07T03:18:54.946Z,-6.07
2019-02-07T03:19:54.957Z,-5.98
2019-02-07T03:20:54.942Z,-6.05
2019-02-07T03:21:54.909Z,-6.01
2019-02-07T03:22:54.967Z,-6.03
2019-02-07T03:23:54.901Z,-6.03
2019-02-07T03:24:54.879Z,-6.01
2019-02-07T03:25:54.869Z,-6.07
2019-02-07T03:26:54.865Z,-6.03
2019-02-07T03:27:54.879Z,-6.19
2019-02-07T03:28:54.919Z,-6.08
2019-02-07T03:29:54.850Z,-6.15
2019-02-07T03:30:54.814Z,-6.11
2019-02-07T03:31:54.807Z,-6.08
2019-02-07T03:32:54.829Z,-6.13
2019-02-07T03:33:54.802Z,-6.15
2019-02-07T03:34:54.778Z,-6.11
2019-02-07T03:35:54.761Z,-6.13
2019-02-07T03:36:54.754Z,-6.18
2019-02-07T03:37:54.740Z,-6.10
2019-02-07T03:38:54.727Z,-6.13
2019-02-07T03:39:54.712Z,-6.03
2019-02-07T03:40:54.744Z,-6.10
2019-02-07T03:41:54.701Z,-6.01
2019-02-07T03:42:54.723Z,-6.10
2019-02-07T03:43:54.679Z,-6.13
2019-02-07T03:44:54.663Z,-6.03
2019-02-07T03:46:02.256Z,-6.07
2019-02-07T03:46:55.685Z,-6.01
2019-02-07T03:47:54.632Z,-6.03
2019-02-07T03:48:54.642Z,-5.98
2019-02-07T03:49:54.739Z,-6.00
2019-02-07T03:50:54.602Z,-5.92
2019-02-07T03:51:54.613Z,-5.97
2019-02-07T03:52:54.589Z,-5.89
2019-02-07T03:53:54.569Z,-6.00
2019-02-07T03:54:54.591Z,-5.89
2019-02-07T03:55:54.551Z,-5.87
2019-02-07T03:56:54.565Z,-5.89
2019-02-07T03:57:54.581Z,-5.94
2019-02-07T03:58:54.513Z,-5.98
2019-02-07T03:59:54.503Z,-5.89
2019-02-07T04:00:54.495Z,-5.87
2019-02-07T04:01:54.478Z,-5.92
2019-02-07T04:02:54.500Z,-5.82
2019-02-07T04:03:54.470Z,-5.86
2019-02-07T04:04:54.470Z,-5.82
2019-02-07T04:05:54.458Z,-5.84
2019-02-07T04:06:54.427Z,-5.74
2019-02-07T04:07:54.430Z,-5.82
2019-02-07T04:08:54.444Z,-5.72
2019-02-07T04:09:54.423Z,-5.79
2019-02-07T04:10:54.392Z,-5.75
2019-02-07T04:11:54.382Z,-5.72
2019-02-07T04:12:54.363Z,-5.72
2019-02-07T04:13:54.374Z,-5.71
2019-02-07T04:14:54.372Z,-5.79
2019-02-07T04:15:54.325Z,-5.65
2019-02-07T04:16:54.361Z,-5.72
2019-02-07T04:17:54.315Z,-5.68
2019-02-07T04:18:54.309Z,-5.71
2019-02-07T04:19:54.301Z,-5.69
2019-02-07T04:20:54.295Z,-5.71
2019-02-07T04:21:54.271Z,-5.65
2019-02-07T04:22:54.277Z,-5.55
2019-02-07T04:23:54.276Z,-5.57
2019-02-07T04:24:54.231Z,-5.57
2019-02-07T04:25:54.251Z,-5.54
2019-02-07T04:26:54.223Z,-5.61
2019-02-07T04:27:54.204Z,-5.53
2019-02-07T04:28:54.224Z,-5.48
2019-02-07T04:29:54.194Z,-5.54
2019-02-07T04:30:54.186Z,-5.53
2019-02-07T04:31:54.174Z,-5.55
2019-02-07T04:32:54.321Z,-5.51
2019-02-07T04:33:54.137Z,-5.55
2019-02-07T04:34:54.127Z,-5.54
2019-02-07T04:35:54.127Z,-5.47
2019-02-07T04:36:54.112Z,-5.55
2019-02-07T04:37:54.151Z,-5.51
2019-02-07T04:38:54.121Z,-5.44
2019-02-07T04:39:54.078Z,-5.53
2019-02-07T04:40:54.056Z,-5.39
2019-02-07T04:41:54.156Z,-5.55
2019-02-07T04:42:54.037Z,-5.41
2019-02-07T04:43:54.055Z,-5.43
2019-02-07T04:44:54.021Z,-5.41
2019-02-07T04:45:54.037Z,-5.44
2019-02-07T04:46:54.025Z,-5.44
2019-02-07T04:47:54.004Z,-5.43
2019-02-07T04:48:53.978Z,-5.46
2019-02-07T04:49:53.985Z,-5.39
2019-02-07T04:50:53.972Z,-5.39
2019-02-07T04:51:53.941Z,-5.35
2019-02-07T04:52:53.998Z,-5.36
2019-02-07T04:53:53.960Z,-5.37
2019-02-07T04:54:53.906Z,-5.35
2019-02-07T04:55:54.001Z,-5.33
2019-02-07T04:56:53.914Z,-5.30
2019-02-07T04:57:53.901Z,-5.32
2019-02-07T04:58:53.873Z,-5.29
2019-02-07T04:59:53.856Z,-5.32
2019-02-07T05:00:53.845Z,-5.44
2019-02-07T05:01:53.847Z,-5.29
2019-02-07T05:02:53.826Z,-5.27
2019-02-07T05:03:53.826Z,-5.36
2019-02-07T05:04:53.840Z,-5.29
2019-02-07T05:05:53.788Z,-5.26
2019-02-07T05:06:53.778Z,-5.37
2019-02-07T05:07:53.789Z,-5.35
2019-02-07T05:08:53.787Z,-5.26
2019-02-07T05:09:53.754Z,-5.27
2019-02-07T05:10:53.779Z,-5.39
2019-02-07T05:11:53.752Z,-5.37
2019-02-07T05:12:53.718Z,-5.30
2019-02-07T05:13:53.722Z,-5.37
2019-02-07T05:14:53.703Z,-5.26
2019-02-07T05:15:53.712Z,-5.30
2019-02-07T05:16:53.694Z,-5.39
2019-02-07T05:17:53.662Z,-5.35
2019-02-07T05:18:53.666Z,-5.37
2019-02-07T05:19:53.683Z,-5.37
2019-02-07T05:20:53.646Z,-5.39
2019-02-07T05:21:53.620Z,-5.36
2019-02-07T05:22:53.635Z,-5.33
2019-02-07T05:23:53.615Z,-5.35
2019-02-07T05:24:53.588Z,-5.35
2019-02-07T05:25:53.607Z,-5.35
2019-02-07T05:26:53.565Z,-5.37
2019-02-07T05:27:53.603Z,-5.44
2019-02-07T05:28:53.581Z,-5.43
2019-02-07T05:29:53.532Z,-5.35
2019-02-07T05:30:53.543Z,-5.39
2019-02-07T05:31:53.524Z,-5.37
2019-02-07T05:32:53.500Z,-5.33
2019-02-07T05:33:53.506Z,-5.48
2019-02-07T05:34:53.502Z,-5.35
2019-02-07T05:35:53.487Z,-5.44
2019-02-07T05:36:53.507Z,-5.36
2019-02-07T05:37:53.444Z,-5.43
2019-02-07T05:38:53.432Z,-5.39
2019-02-07T05:39:53.457Z,-5.43
2019-02-07T05:40:53.419Z,-5.43
2019-02-07T05:41:53.431Z,-5.37
2019-02-07T05:42:53.411Z,-5.41
2019-02-07T05:43:53.397Z,-5.46
2019-02-07T05:44:53.381Z,-5.37
2019-02-07T05:45:53.355Z,-5.37
2019-02-07T05:46:53.397Z,-5.30
2019-02-07T05:47:53.359Z,-5.35
2019-02-07T05:48:53.332Z,-5.35
2019-02-07T05:49:53.345Z,-5.36
2019-02-07T05:50:53.306Z,-5.35
2019-02-07T05:51:53.311Z,-5.33
2019-02-07T05:52:53.323Z,-5.36
2019-02-07T05:53:53.272Z,-5.39
2019-02-07T05:54:53.267Z,-5.35
2019-02-07T05:55:53.265Z,-5.35
2019-02-07T05:56:53.267Z,-5.39
2019-02-07T05:57:53.238Z,-5.37
2019-02-07T05:58:53.262Z,-5.39
2019-02-07T05:59:53.213Z,-5.33
2019-02-07T06:00:53.193Z,-5.37
2019-02-07T06:01:53.185Z,-5.30
2019-02-07T06:02:53.182Z,-5.36
2019-02-07T06:03:53.214Z,-5.33
2019-02-07T06:04:53.152Z,-5.44
2019-02-07T06:05:53.196Z,-5.36
2019-02-07T06:06:53.136Z,-5.39
2019-02-07T06:07:53.138Z,-5.36
2019-02-07T06:08:53.138Z,-5.30
2019-02-07T06:09:53.100Z,-5.41
2019-02-07T06:10:53.083Z,-5.37
2019-02-07T06:11:53.087Z,-5.36
2019-02-07T06:12:53.064Z,-5.43
2019-02-07T06:13:53.098Z,-5.32
2019-02-07T06:14:53.105Z,-5.35
2019-02-07T06:15:53.029Z,-5.35
2019-02-07T06:17:02.307Z,-5.37
2019-02-07T06:17:54.063Z,-5.35
2019-02-07T06:18:53.011Z,-5.36
2019-02-07T06:19:53.004Z,-5.37
2019-02-07T06:20:53.002Z,-5.35
2019-02-07T06:21:52.976Z,-5.46
2019-02-07T06:22:52.959Z,-5.39
2019-02-07T06:23:52.954Z,-5.32
2019-02-07T06:24:52.942Z,-5.35
2019-02-07T06:25:52.952Z,-5.39
2019-02-07T06:26:52.910Z,-5.32
2019-02-07T06:27:52.909Z,-5.39
2019-02-07T06:28:52.890Z,-5.27
2019-02-07T06:29:52.893Z,-5.32
2019-02-07T06:30:52.905Z,-5.32
2019-02-07T06:31:52.886Z,-5.41
2019-02-07T06:32:52.842Z,-5.32
2019-02-07T06:33:52.860Z,-5.26
2019-02-07T06:34:52.825Z,-5.27
2019-02-07T06:35:52.807Z,-5.26
2019-02-07T06:36:52.851Z,-5.36
2019-02-07T06:37:52.792Z,-5.39
2019-02-07T06:38:52.774Z,-5.32
2019-02-07T06:39:52.766Z,-5.37
2019-02-07T06:40:52.779Z,-5.37
2019-02-07T06:41:52.770Z,-5.32
2019-02-07T06:42:52.744Z,-5.37
2019-02-07T06:43:52.734Z,-5.43
2019-02-07T06:44:52.716Z,-5.39
2019-02-07T06:45:52.698Z,-5.41
2019-02-07T06:46:52.688Z,-5.33
2019-02-07T06:47:52.783Z,-5.50
2019-02-07T06:48:52.670Z,-5.53
2019-02-07T06:49:52.684Z,-5.46
2019-02-07T06:50:52.654Z,-5.37
2019-02-07T06:51:52.681Z,-5.51
2019-02-07T06:52:52.678Z,-5.41
2019-02-07T06:53:52.685Z,-5.35
2019-02-07T06:54:52.606Z,-5.36
2019-02-07T06:55:52.594Z,-5.43
2019-02-07T06:56:52.614Z,-5.43
2019-02-07T06:57:52.598Z,-5.41
2019-02-07T06:58:55.135Z,-5.32
2019-02-07T06:59:52.566Z,-5.29
2019-02-07T07:00:52.567Z,-5.26
2019-02-07T07:01:52.536Z,-5.33
2019-02-07T07:02:52.542Z,-5.35
2019-02-07T07:03:52.508Z,-5.32
2019-02-07T07:04:52.503Z,-5.32
2019-02-07T07:05:52.510Z,-5.30
2019-02-07T07:06:52.484Z,-5.25
2019-02-07T07:07:52.462Z,-5.23
2019-02-07T07:08:52.545Z,-5.19
2019-02-07T07:09:52.455Z,-5.26
2019-02-07T07:10:52.443Z,-5.25
2019-02-07T07:11:52.434Z,-5.22
2019-02-07T07:12:52.438Z,-5.30
2019-02-07T07:13:52.398Z,-5.14
2019-02-07T07:14:52.396Z,-5.35
2019-02-07T07:15:52.398Z,-5.36
2019-02-07T07:16:52.380Z,-5.37
2019-02-07T07:17:52.355Z,-5.35
2019-02-07T07:18:52.366Z,-5.29
2019-02-07T07:19:52.354Z,-5.27
2019-02-07T07:20:52.382Z,-5.26
2019-02-07T07:21:52.335Z,-5.22
2019-02-07T07:22:52.319Z,-5.18
2019-02-07T07:23:52.305Z,-5.19
2019-02-07T07:24:52.280Z,-5.19
2019-02-07T07:25:52.266Z,-5.14
2019-02-07T07:26:52.268Z,-5.10
2019-02-07T07:27:52.371Z,-5.11
2019-02-07T07:28:52.235Z,-5.08
2019-02-07T07:29:52.232Z,-5.11
2019-02-07T07:30:52.235Z,-5.00
2019-02-07T07:31:52.226Z,-5.11
2019-02-07T07:32:52.224Z,-5.10
2019-02-07T07:33:52.177Z,-5.18
2019-02-07T07:34:52.173Z,-5.14
2019-02-07T07:35:52.203Z,-5.14
2019-02-07T07:36:52.147Z,-5.13
2019-02-07T07:37:52.147Z,-5.08
2019-02-07T07:38:52.141Z,-5.04
2019-02-07T07:39:52.144Z,-5.17
2019-02-07T07:40:52.138Z,-5.03
2019-02-07T07:41:52.129Z,-5.07
2019-02-07T07:42:52.106Z,-5.08
2019-02-07T07:43:52.101Z,-5.04
2019-02-07T07:44:52.076Z,-5.07
2019-02-07T07:45:52.065Z,-5.07
2019-02-07T07:46:52.035Z,-5.03
2019-02-07T07:47:52.073Z,-5.03
2019-02-07T07:48:52.023Z,-5.06
2019-02-07T07:49:52.003Z,-5.13
2019-02-07T07:50:51.989Z,-5.17
2019-02-07T07:51:52.042Z,-5.08
2019-02-07T07:52:51.986Z,-5.06
2019-02-07T07:53:51.970Z,-5.07
2019-02-07T07:54:51.951Z,-5.06
2019-02-07T07:55:51.958Z,-5.00
2019-02-07T07:56:52.634Z,-4.95
2019-02-07T07:57:51.961Z,-4.87
2019-02-07T07:58:51.917Z,-4.93
2019-02-07T07:59:51.914Z,-4.77
2019-02-07T08:00:51.883Z,-4.85
2019-02-07T08:01:51.895Z,-4.79
2019-02-07T08:02:51.875Z,-4.79
2019-02-07T08:03:51.851Z,-4.77
2019-02-07T08:04:51.848Z,-4.77
2019-02-07T08:05:53.415Z,-4.75
2019-02-07T08:06:51.846Z,-4.65
2019-02-07T08:07:51.819Z,-4.68
2019-02-07T08:08:51.820Z,-4.71
2019-02-07T08:09:51.787Z,-4.68
2019-02-07T08:10:51.778Z,-4.60
2019-02-07T08:11:51.774Z,-4.60
2019-02-07T08:12:51.762Z,-4.60
2019-02-07T08:13:51.754Z,-4.56
2019-02-07T08:14:51.909Z,-4.51
2019-02-07T08:15:51.798Z,-4.47
2019-02-07T08:16:51.712Z,-4.40
2019-02-07T08:17:51.732Z,-4.49
2019-02-07T08:18:51.700Z,-4.40
2019-02-07T08:19:51.674Z,-4.40
2019-02-07T08:20:51.661Z,-4.43
2019-02-07T08:21:51.690Z,-4.47
2019-02-07T08:22:51.638Z,-4.42
2019-02-07T08:23:51.706Z,-4.30
2019-02-07T08:24:51.624Z,-4.40
2019-02-07T08:25:51.618Z,-4.30
2019-02-07T08:26:51.619Z,-4.36
2019-02-07T08:27:51.612Z,-4.30
2019-02-07T08:28:51.718Z,-4.24
2019-02-07T08:29:51.578Z,-4.30
2019-02-07T08:30:51.577Z,-4.25
2019-02-07T08:31:51.548Z,-4.32
2019-02-07T08:32:51.537Z,-4.35
2019-02-07T08:33:51.522Z,-4.33
2019-02-07T08:34:51.519Z,-4.18
2019-02-07T08:35:51.502Z,-4.17
2019-02-07T08:36:52.129Z,-4.22
2019-02-07T08:37:51.528Z,-4.07
2019-02-07T08:38:51.523Z,-4.04
2019-02-07T08:39:51.456Z,-4.11
2019-02-07T08:40:51.444Z,-4.04
2019-02-07T08:41:51.444Z,-4.21
2019-02-07T08:42:51.457Z,-4.06
2019-02-07T08:43:51.438Z,-4.07
2019-02-07T08:44:51.425Z,-4.04
2019-02-07T08:45:51.397Z,-4.14
2019-02-07T08:46:51.380Z,-4.00
2019-02-07T08:47:58.411Z,-3.96
2019-02-07T08:48:52.405Z,-4.03
2019-02-07T08:49:51.343Z,-3.94
2019-02-07T08:50:51.354Z,-4.01
2019-02-07T08:51:51.355Z,-3.94
2019-02-07T08:52:51.309Z,-3.97
2019-02-07T08:53:51.327Z,-4.00
2019-02-07T08:54:51.324Z,-3.91
2019-02-07T08:55:51.277Z,-3.90
2019-02-07T08:56:51.306Z,-3.93
2019-02-07T08:57:51.274Z,-3.91
2019-02-07T08:58:51.264Z,-3.86
2019-02-07T08:59:51.279Z,-3.83
2019-02-07T09:00:51.230Z,-3.90
2019-02-07T09:01:51.235Z,-3.90
2019-02-07T09:02:52.083Z,-3.82
2019-02-07T09:03:51.194Z,-3.76
2019-02-07T09:04:51.181Z,-3.82
2019-02-07T09:05:51.194Z,-3.82
2019-02-07T09:06:51.157Z,-3.88
2019-02-07T09:07:51.161Z,-3.86
2019-02-07T09:08:51.147Z,-3.85
2019-02-07T09:09:51.123Z,-3.72
2019-02-07T09:10:51.134Z,-3.75
2019-02-07T09:11:51.100Z,-3.66
2019-02-07T09:12:51.102Z,-3.59
2019-02-07T09:13:53.747Z,-3.62
2019-02-07T09:14:51.067Z,-3.56
2019-02-07T09:15:51.057Z,-3.56
2019-02-07T09:16:51.090Z,-3.53
2019-02-07T09:17:51.053Z,-3.33
2019-02-07T09:18:51.031Z,-3.42
2019-02-07T09:19:51.013Z,-3.31
2019-02-07T09:20:51.020Z,-3.45
2019-02-07T09:21:51.004Z,-3.45
2019-02-07T09:22:50.981Z,-3.49
2019-02-07T09:23:51.015Z,-3.46
2019-02-07T09:24:50.985Z,-3.52
2019-02-07T09:25:50.958Z,-3.57
2019-02-07T09:26:50.951Z,-3.49
2019-02-07T09:27:50.947Z,-3.48
2019-02-07T09:28:50.915Z,-3.38
2019-02-07T09:29:51.046Z,-3.38
2019-02-07T09:30:50.891Z,-3.24
2019-02-07T09:31:50.903Z,-3.21
2019-02-07T09:32:50.889Z,-3.24
2019-02-07T09:33:50.857Z,-3.20
2019-02-07T09:34:52.063Z,-3.25
2019-02-07T09:35:50.879Z,-3.21
2019-02-07T09:36:50.835Z,-3.20
2019-02-07T09:37:50.830Z,-3.17
2019-02-07T09:38:50.827Z,-3.15
2019-02-07T09:39:51.137Z,-3.10
2019-02-07T09:40:50.799Z,-3.10
2019-02-07T09:41:50.796Z,-3.14
2019-02-07T09:42:50.920Z,-3.12
2019-02-07T09:43:50.751Z,-3.06
2019-02-07T09:44:50.751Z,-3.09
2019-02-07T09:45:50.744Z,-3.09
2019-02-07T09:46:50.721Z,-3.15
2019-02-07T09:47:50.734Z,-3.12
2019-02-07T09:48:50.710Z,-2.97
2019-02-07T09:49:50.710Z,-3.02
2019-02-07T09:50:50.702Z,-2.86
2019-02-07T09:51:50.676Z,-2.88
2019-02-07T09:52:50.700Z,-2.92
2019-02-07T09:53:50.655Z,-2.89
2019-02-07T09:54:50.637Z,-2.86
2019-02-07T09:55:50.643Z,-2.79
2019-02-07T09:56:50.647Z,-2.77
2019-02-07T09:57:50.621Z,-2.79
2019-02-07T09:58:51.143Z,-2.77
2019-02-07T09:59:51.146Z,-2.71
2019-02-07T10:00:50.566Z,-2.77
2019-02-07T10:01:50.591Z,-2.78
2019-02-07T10:02:50.545Z,-2.79
2019-02-07T10:03:50.559Z,-2.82
2019-02-07T10:04:50.542Z,-2.79
2019-02-07T10:05:50.522Z,-2.77
2019-02-07T10:06:50.514Z,-2.67
2019-02-07T10:07:50.500Z,-2.71
2019-02-07T10:08:50.487Z,-2.74
2019-02-07T10:09:50.465Z,-2.77
2019-02-07T10:10:50.450Z,-2.81
2019-02-07T10:11:50.453Z,-2.73
2019-02-07T10:12:50.459Z,-2.74
2019-02-07T10:13:50.440Z,-2.73
2019-02-07T10:14:50.417Z,-2.61
2019-02-07T10:15:50.405Z,-2.55
2019-02-07T10:16:50.408Z,-2.53
2019-02-07T10:17:50.410Z,-2.66
2019-02-07T10:18:50.383Z,-2.58
2019-02-07T10:19:50.360Z,-2.49
2019-02-07T10:20:50.371Z,-2.55
2019-02-07T10:21:50.348Z,-2.49
2019-02-07T10:22:50.336Z,-2.35
2019-02-07T10:23:50.337Z,-2.37
2019-02-07T10:24:50.308Z,-2.37
2019-02-07T10:25:51.409Z,-2.35
2019-02-07T10:26:50.307Z,-2.37
2019-02-07T10:27:50.280Z,-2.37
2019-02-07T10:28:50.311Z,-2.46
2019-02-07T10:29:50.260Z,-2.39
2019-02-07T10:30:50.294Z,-2.50
2019-02-07T10:31:50.237Z,-2.39
2019-02-07T10:32:50.217Z,-2.39
2019-02-07T10:33:50.206Z,-2.42
2019-02-07T10:34:50.195Z,-2.32
2019-02-07T10:35:50.178Z,-2.35
2019-02-07T10:36:50.185Z,-2.29
2019-02-07T10:37:50.195Z,-2.15
2019-02-07T10:38:50.164Z,-2.24
2019-02-07T10:39:50.137Z,-2.15
2019-02-07T10:40:50.122Z,-2.21
2019-02-07T10:41:50.131Z,-2.18
2019-02-07T10:42:50.132Z,-2.10
2019-02-07T10:43:50.140Z,-2.03
2019-02-07T10:44:50.096Z,-2.08
2019-02-07T10:45:50.085Z,-2.09
2019-02-07T10:46:50.114Z,-2.09
2019-02-07T10:47:50.106Z,-2.13
2019-02-07T10:48:50.066Z,-2.05
2019-02-07T10:49:58.896Z,-2.05
2019-02-07T10:50:51.020Z,-2.05
2019-02-07T10:51:50.015Z,-2.00
2019-02-07T10:52:50.042Z,-1.98
2019-02-07T10:53:49.997Z,-1.94
2019-02-07T10:54:49.983Z,-2.00
2019-02-07T10:55:50.010Z,-1.97
2019-02-07T10:56:49.950Z,-2.05
2019-02-07T10:57:50.022Z,-2.05
2019-02-07T10:58:49.939Z,-2.08
2019-02-07T10:59:49.912Z,-2.08
2019-02-07T11:00:49.915Z,-2.06
2019-02-07T11:01:50.026Z,-2.06
2019-02-07T11:02:49.909Z,-2.02
2019-02-07T11:03:49.873Z,-1.97
2019-02-07T11:04:49.860Z,-1.92
2019-02-07T11:05:49.871Z,-1.84
2019-02-07T11:06:49.881Z,-1.82
2019-02-07T11:07:49.830Z,-1.85
2019-02-07T11:08:49.857Z,-1.72
2019-02-07T11:09:49.832Z,-1.69
2019-02-07T11:10:49.789Z,-1.67
2019-02-07T11:11:49.816Z,-1.64
2019-02-07T11:12:49.813Z,-1.66
2019-02-07T11:13:49.818Z,-1.59
2019-02-07T11:14:49.743Z,-1.66
2019-02-07T11:15:49.740Z,-1.69
2019-02-07T11:16:49.783Z,-1.69
2019-02-07T11:17:49.734Z,-1.70
2019-02-07T11:18:55.558Z,-1.76
2019-02-07T11:19:50.713Z,-1.82
2019-02-07T11:20:49.680Z,-1.87
2019-02-07T11:21:49.705Z,-1.87
2019-02-07T11:22:49.696Z,-1.97
2019-02-07T11:23:49.647Z,-1.91
2019-02-07T11:24:49.712Z,-2.05
2019-02-07T11:25:49.655Z,-2.10
2019-02-07T11:26:49.664Z,-2.15
2019-02-07T11:27:49.609Z,-2.26
2019-02-07T11:28:49.591Z,-2.26
2019-02-07T11:29:49.598Z,-2.24
2019-02-07T11:30:49.571Z,-2.26
2019-02-07T11:31:49.607Z,-2.23
2019-02-07T11:32:49.555Z,-2.13
2019-02-07T11:33:49.544Z,-2.12
2019-02-07T11:34:49.584Z,-2.13
2019-02-07T11:35:49.539Z,-2.12
2019-02-07T11:36:54.153Z,-2.13
2019-02-07T11:37:50.535Z,-2.08
2019-02-07T11:38:49.498Z,-2.06
2019-02-07T11:39:49.508Z,-1.94
2019-02-07T11:40:49.491Z,-1.87
2019-02-07T11:41:49.480Z,-1.90
2019-02-07T11:42:49.536Z,-1.92
2019-02-07T11:43:49.441Z,-1.90
2019-02-07T11:44:50.706Z,-1.94
2019-02-07T11:45:49.435Z,-1.94
2019-02-07T11:46:49.439Z,-1.90
2019-02-07T11:47:49.398Z,-1.85
2019-02-07T11:48:49.372Z,-1.85
2019-02-07T11:49:49.369Z,-1.95
2019-02-07T11:50:49.373Z,-1.97
2019-02-07T11:51:49.350Z,-1.88
2019-02-07T11:52:49.391Z,-1.87
2019-02-07T11:53:49.320Z,-1.94
2019-02-07T11:54:49.307Z,-1.91
2019-02-07T11:55:49.312Z,-1.85
2019-02-07T11:56:49.316Z,-1.82
2019-02-07T11:57:49.283Z,-1.73
2019-02-07T11:58:49.266Z,-1.73
2019-02-07T11:59:49.282Z,-1.74
2019-02-07T12:00:49.903Z,-1.72
2019-02-07T12:01:49.295Z,-1.64
2019-02-07T12:02:49.247Z,-1.58
2019-02-07T12:03:49.215Z,-1.58
2019-02-07T12:04:49.200Z,-1.56
2019-02-07T12:05:49.197Z,-1.64
2019-02-07T12:06:49.203Z,-1.62
2019-02-07T12:07:49.195Z,-1.56
2019-02-07T12:08:49.155Z,-1.64
2019-02-07T12:09:49.142Z,-1.72
2019-02-07T12:10:49.163Z,-1.70
2019-02-07T12:11:49.169Z,-1.69
2019-02-07T12:12:49.106Z,-1.80
2019-02-07T12:13:49.150Z,-1.90
2019-02-07T12:14:49.086Z,-1.94
2019-02-07T12:15:49.078Z,-1.94
2019-02-07T12:16:49.080Z,-1.85
2019-02-07T12:17:49.641Z,-1.94
2019-02-07T12:18:49.048Z,-1.80
2019-02-07T12:19:49.050Z,-1.74
2019-02-07T12:20:49.020Z,-1.70
2019-02-07T12:21:49.101Z,-1.66
2019-02-07T12:22:48.994Z,-1.67
2019-02-07T12:23:49.013Z,-1.64
2019-02-07T12:24:49.006Z,-1.66
2019-02-07T12:25:49.007Z,-1.52
2019-02-07T12:26:48.985Z,-1.52
2019-02-07T12:27:48.946Z,-1.64
2019-02-07T12:28:48.981Z,-1.54
2019-02-07T12:29:48.934Z,-1.59
2019-02-07T12:30:48.938Z,-1.56
2019-02-07T12:31:48.934Z,-1.51
2019-02-07T12:32:48.897Z,-1.59
2019-02-07T12:33:48.898Z,-1.51
2019-02-07T12:34:48.887Z,-1.55
2019-02-07T12:35:48.891Z,-1.46
2019-02-07T12:36:48.895Z,-1.40
2019-02-07T12:37:48.831Z,-1.34
2019-02-07T12:38:48.876Z,-1.35
2019-02-07T12:39:48.968Z,-1.25
2019-02-07T12:40:48.811Z,-1.20
2019-02-07T12:41:48.799Z,-1.27
2019-02-07T12:42:48.794Z,-1.23
2019-02-07T12:43:48.804Z,-1.23
2019-02-07T12:44:48.765Z,-1.23
2019-02-07T12:45:48.780Z,-1.19
2019-02-07T12:46:48.793Z,-1.12
2019-02-07T12:47:48.727Z,-1.22
2019-02-07T12:48:48.733Z,-1.10
2019-02-07T12:49:48.721Z,-1.16
2019-02-07T12:50:48.740Z,-1.10
2019-02-07T12:51:48.679Z,-1.01
2019-02-07T12:52:48.712Z,-0.99